Gokceada 1 — TCSZ8 — position and weather

sailwx.info

Track history (hours):
 
Tides and Currents Weather Stations Pressure Air Temp Water Temp Dewpoint Dewpoint Depression Visibility Wind Speed Wind Dir Waves Ship Positions

Gokceada 1

Last reported at 2017-Sep-21 07:49 UTC. Time now 2017-Sep-21 09:06 UTC.
Position N 40°13' E 026°03'.

Length 84 m; draft 4.1 m.

MMSI: 271001031.

Date/timePositionNaut miles runAvg speedWind from/ knotsBaromVisibWave heightAir tempDewpointWater temp
2017-Sep-21 07:49N 40°13' E 026°03'1 0.3
2017-Sep-21 04:27N 40°14' E 026°04'4 0.4
2017-Sep-20 19:08N 40°14' E 025°58'212.7
2017-Sep-20 18:59N 40°14' E 026°01'7 3.7
2017-Sep-20 16:57N 40°13' E 026°10'613.4
2017-Sep-20 16:30N 40°13' E 026°02'0 0.2
2017-Sep-20 14:00N 40°14' E 026°02'11 5.2
2017-Sep-20 11:57N 40°12' E 026°16'0 0.0
2017-Sep-20 11:28N 40°12' E 026°16'2 4.3
2017-Sep-20 11:00N 40°13' E 026°14'713.3
2017-Sep-20 10:29N 40°13' E 026°04'3 1.0
2017-Sep-20 07:58N 40°14' E 026°01'612.2
2017-Sep-20 07:29N 40°13' E 026°09'1 0.4
2017-Sep-20 04:46N 40°13' E 026°07'7 0.7
2017-Sep-19 19:10N 40°14' E 025°58'212.3
2017-Sep-19 19:00N 40°14' E 026°01'712.4
2017-Sep-19 18:27N 40°13' E 026°10'5 6.1
2017-Sep-19 17:38N 40°12' E 026°16'0 0.0
2017-Sep-19 17:26N 40°12' E 026°16'2 4.6
2017-Sep-19 17:00N 40°12' E 026°14'713.5
2017-Sep-19 16:29N 40°13' E 026°04'5 2.1
2017-Sep-19 14:12N 40°14' E 025°58'212.6
2017-Sep-19 14:00N 40°13' E 026°02'1111.9
2017-Sep-19 13:05N 40°12' E 026°16'0 0.4
2017-Sep-19 12:39N 40°12' E 026°16'0 0.0
2017-Sep-19 12:17N 40°12' E 026°16'0 0.0
2017-Sep-19 11:46N 40°12' E 026°16'0 0.0
2017-Sep-19 11:30N 40°12' E 026°16'2 4.4
2017-Sep-19 11:00N 40°12' E 026°13'713.3
2017-Sep-19 10:29N 40°13' E 026°04'3 1.2
2017-Sep-19 08:00N 40°14' E 026°01'12 4.5
2017-Sep-19 05:23N 40°12' E 026°16'7 9.2
2017-Sep-19 04:36N 40°13' E 026°07'213.2
2017-Sep-19 04:27N 40°13' E 026°04'4 0.6
2017-Sep-18 20:37N 40°14' E 025°58'212.4
2017-Sep-18 20:28N 40°14' E 026°01'912.7
2017-Sep-18 19:46N 40°13' E 026°12'3 2.8
2017-Sep-18 18:43N 40°12' E 026°09'313.1
2017-Sep-18 18:29N 40°13' E 026°05'5 3.8
2017-Sep-18 17:09N 40°14' E 025°58'212.4
2017-Sep-18 16:58N 40°13' E 026°01'612.1
2017-Sep-18 16:29N 40°13' E 026°09'611.8
2017-Sep-18 16:00N 40°12' E 026°16'0 0.0
2017-Sep-18 15:06N 40°12' E 026°16'0 0.0
2017-Sep-18 14:16N 40°12' E 026°16'611.7
2017-Sep-18 13:43N 40°13' E 026°08'313.1
2017-Sep-18 13:28N 40°13' E 026°03'3 1.3
2017-Sep-18 11:05N 40°13' E 025°59'211.9
2017-Sep-18 10:57N 40°13' E 026°01'612.4
2017-Sep-18 10:29N 40°13' E 026°09'6 3.9
2017-Sep-18 09:05N 40°12' E 026°16'0 0.0
2017-Sep-18 09:00N 40°12' E 026°16'0 0.0
2017-Sep-18 08:12N 40°12' E 026°16'912.4
2017-Sep-18 07:28N 40°13' E 026°04'1 0.3
2017-Sep-18 04:50N 40°13' E 026°03'10 2.1
2017-Sep-18 00:12N 40°12' E 026°16'0 0.0
2017-Sep-17 23:56N 40°12' E 026°16'0 0.0
2017-Sep-17 23:29N 40°12' E 026°16'0 0.0
2017-Sep-17 22:59N 40°12' E 026°16'0 0.0
2017-Sep-17 22:30N 40°12' E 026°16'0 0.0
2017-Sep-17 21:59N 40°12' E 026°16'0 0.0
2017-Sep-17 21:30N 40°12' E 026°16'5 7.0
2017-Sep-17 20:46N 40°12' E 026°09'412.9
2017-Sep-17 20:29N 40°13' E 026°05'5 3.6
2017-Sep-17 19:09N 40°14' E 025°58'212.1
2017-Sep-17 18:57N 40°13' E 026°02'1112.8
2017-Sep-17 18:05N 40°12' E 026°16'0 0.2
2017-Sep-17 17:32N 40°12' E 026°16'1112.3
2017-Sep-17 16:41N 40°13' E 026°02'213.2
2017-Sep-17 16:30N 40°13' E 025°59'1 1.1
2017-Sep-17 15:40N 40°14' E 025°58'212.2
2017-Sep-17 15:29N 40°14' E 026°01'712.3
2017-Sep-17 14:56N 40°13' E 026°10'511.3
2017-Sep-17 14:30N 40°12' E 026°16'0 0.3
2017-Sep-17 14:00N 40°12' E 026°16'612.4
2017-Sep-17 13:30N 40°12' E 026°08'713.3
2017-Sep-17 12:59N 40°14' E 025°59'0 0.2
2017-Sep-17 12:10N 40°13' E 025°59'211.9
2017-Sep-17 12:00N 40°13' E 026°01'712.2
2017-Sep-17 11:28N 40°13' E 026°10'5 5.9
2017-Sep-17 10:38N 40°12' E 026°16'0 0.1
2017-Sep-17 10:30N 40°12' E 026°16'611.9
2017-Sep-17 09:59N 40°12' E 026°08'613.4
2017-Sep-17 09:30N 40°13' E 025°60'1 1.0
2017-Sep-17 08:38N 40°14' E 025°58'212.0
2017-Sep-17 08:29N 40°13' E 026°01'10 5.7
2017-Sep-17 06:47N 40°12' E 026°13'412.8
2017-Sep-17 06:30N 40°13' E 026°09'713.7
2017-Sep-17 05:58N 40°14' E 025°59'0 0.5
2017-Sep-17 05:08N 40°14' E 025°59'212.0
2017-Sep-17 04:59N 40°13' E 026°01'912.7
2017-Sep-17 04:18N 40°12' E 026°12'3 9.9
2017-Sep-17 04:00N 40°12' E 026°16'0 0.0
2017-Sep-17 03:28N 40°12' E 026°16'6 8.3
2017-Sep-17 02:43N 40°13' E 026°08'313.1
2017-Sep-17 02:30N 40°13' E 026°04'4 0.8
2017-Sep-16 21:08N 40°14' E 025°58'212.1
2017-Sep-16 21:00N 40°14' E 026°00'9 4.1
2017-Sep-16 18:53N 40°12' E 026°11'512.9
2017-Sep-16 18:30N 40°13' E 026°05'3 2.4
2017-Sep-16 17:14N 40°13' E 026°01'311.8
2017-Sep-16 16:58N 40°13' E 026°05'612.6
2017-Sep-16 16:29N 40°12' E 026°13'2 3.4
2017-Sep-16 15:49N 40°12' E 026°16'3 7.6
2017-Sep-16 15:28N 40°12' E 026°13'613.1
2017-Sep-16 15:00N 40°13' E 026°05'5 4.6
2017-Sep-16 13:56N 40°14' E 025°58'512.2
2017-Sep-16 13:30N 40°13' E 026°05'6 3.8
2017-Sep-16 11:59N 40°12' E 026°13'612.7
2017-Sep-16 11:30N 40°13' E 026°04'5 4.4
2017-Sep-16 10:25N 40°14' E 025°58'712.2
2017-Sep-16 09:50N 40°14' E 026°08'4 3.5
2017-Sep-16 08:34N 40°12' E 026°13'512.4
2017-Sep-16 08:09N 40°13' E 026°07'212.8
2017-Sep-16 08:00N 40°13' E 026°04'5 5.0
2017-Sep-16 07:02N 40°14' E 025°58'012.6
2017-Sep-16 07:00N 40°14' E 025°58'8 3.3
2017-Sep-16 04:42N 40°12' E 026°08'312.9
2017-Sep-16 04:29N 40°13' E 026°05'2 1.4
2017-Sep-16 02:57N 40°13' E 026°02'11 2.1
2017-Sep-15 21:41N 40°12' E 026°16'0 0.0
2017-Sep-15 21:30N 40°12' E 026°16'6 8.1
2017-Sep-15 20:41N 40°12' E 026°08'313.0
2017-Sep-15 20:29N 40°13' E 026°04'5 3.5
2017-Sep-15 19:10N 40°14' E 025°58'211.8
2017-Sep-15 19:00N 40°14' E 026°01'8 3.8
2017-Sep-15 16:53N 40°12' E 026°11'513.3
2017-Sep-15 16:29N 40°13' E 026°04'5 4.1
2017-Sep-15 15:20N 40°14' E 025°58'13 6.2
2017-Sep-15 13:10N 40°12' E 026°16'612.5
2017-Sep-15 12:41N 40°13' E 026°08'213.6
2017-Sep-15 12:30N 40°13' E 026°05'2 1.6
2017-Sep-15 10:59N 40°14' E 026°02'4 1.9
2017-Sep-15 08:41N 40°13' E 026°07'313.4
2017-Sep-15 08:29N 40°13' E 026°04'3 1.9
2017-Sep-15 07:04N 40°14' E 026°00'111.8
2017-Sep-15 07:00N 40°14' E 026°02'4 2.1
2017-Sep-15 04:49N 40°13' E 026°07'4 2.0
2017-Sep-15 02:53N 40°13' E 026°02'4 0.5
2017-Sep-14 18:39N 40°13' E 026°07'312.9
2017-Sep-14 18:25N 40°13' E 026°03'1 0.7
2017-Sep-14 16:56N 40°13' E 026°02'1112.7
2017-Sep-14 16:05N 40°12' E 026°16'0 1.6
2017-Sep-14 15:57N 40°12' E 026°16'0 0.0
2017-Sep-14 15:29N 40°12' E 026°16'3 5.4
2017-Sep-14 15:00N 40°12' E 026°13'712.9
2017-Sep-14 14:26N 40°13' E 026°03'3 1.9
2017-Sep-14 13:02N 40°14' E 026°00'6 2.8
2017-Sep-14 10:44N 40°13' E 026°08'412.6
2017-Sep-14 10:27N 40°13' E 026°03'3 1.8
2017-Sep-14 09:02N 40°14' E 026°00'012.3
2017-Sep-14 09:00N 40°14' E 026°01'4 1.8
2017-Sep-14 06:37N 40°13' E 026°06'212.8
2017-Sep-14 06:28N 40°13' E 026°04'1 0.9
2017-Sep-14 05:01N 40°13' E 026°02'011.9
2017-Sep-14 04:59N 40°13' E 026°03'10 1.3
2017-Sep-13 20:52N 40°12' E 026°16'4 2.0
2017-Sep-13 18:50N 40°13' E 026°11'413.2
2017-Sep-13 18:30N 40°13' E 026°05'3 2.3
2017-Sep-13 17:01N 40°14' E 026°01'011.8
2017-Sep-13 17:00N 40°14' E 026°01'5 2.4
2017-Sep-13 14:42N 40°13' E 026°08'313.2
2017-Sep-13 14:27N 40°13' E 026°04'2 1.3
2017-Sep-13 12:59N 40°13' E 026°01'612.3
2017-Sep-13 12:29N 40°13' E 026°09'2 1.0
2017-Sep-13 10:38N 40°13' E 026°07'213.3
2017-Sep-13 10:27N 40°13' E 026°04'4 3.4
2017-Sep-13 09:11N 40°14' E 025°58'312.2
2017-Sep-13 08:57N 40°13' E 026°02'612.5
2017-Sep-13 08:27N 40°13' E 026°10'5 9.0
2017-Sep-13 07:56N 40°12' E 026°16'0 0.0
2017-Sep-13 07:29N 40°12' E 026°16'6 8.1
2017-Sep-13 06:43N 40°13' E 026°08'413.2
2017-Sep-13 06:26N 40°13' E 026°03'1 0.8
2017-Sep-13 05:01N 40°13' E 026°02'011.0
2017-Sep-13 05:00N 40°13' E 026°02'6 0.6
2017-Sep-12 18:54N 40°13' E 026°10'6 3.3
2017-Sep-12 17:00N 40°13' E 026°02'6 2.6
2017-Sep-12 14:50N 40°12' E 026°09'1 0.8
2017-Sep-12 12:53N 40°11' E 026°07'3 1.9
2017-Sep-12 11:04N 40°11' E 026°11'113.5
2017-Sep-12 11:00N 40°10' E 026°10'3 1.4
2017-Sep-12 08:49N 40°11' E 026°06'5 2.8
2017-Sep-12 07:06N 40°11' E 026°12'6 3.0
2017-Sep-12 05:04N 40°12' E 026°05'111.4
2017-Sep-12 05:00N 40°12' E 026°05'6 0.6
2017-Sep-11 19:00N 40°12' E 026°13'713.2
2017-Sep-11 18:29N 40°13' E 026°04'5 3.5
2017-Sep-11 17:10N 40°14' E 025°58'212.4
2017-Sep-11 16:59N 40°13' E 026°01'611.8
2017-Sep-11 16:29N 40°13' E 026°09'4 2.4
2017-Sep-11 15:01N 40°12' E 026°14'713.2
2017-Sep-11 14:30N 40°13' E 026°05'5 4.0
2017-Sep-11 13:13N 40°14' E 025°58'311.8
2017-Sep-11 13:00N 40°14' E 026°02'11 6.1
2017-Sep-11 11:12N 40°12' E 026°16'311.6
2017-Sep-11 10:59N 40°12' E 026°13'713.1
2017-Sep-11 10:28N 40°13' E 026°04'4 2.6
2017-Sep-11 09:08N 40°14' E 025°60'212.3
2017-Sep-11 09:00N 40°14' E 026°02'  
Track history (hours):
 
Tides and Currents Weather Stations Pressure Air Temp Water Temp Dewpoint Dewpoint Depression Visibility Wind Speed Wind Dir Waves Ship Positions

Gokceada 1

Last reported at 2017-Sep-21 07:49 UTC. Time now 2017-Sep-21 09:06 UTC.
Position N 40°13' E 026°03'.

Length 84 m; draft 4.1 m.

MMSI: 271001031.

Date/timePositionNaut miles runAvg speedWind from/ knotsBaromVisibWave heightAir tempDewpointWater temp
2017-Sep-21 07:49N 40°13' E 026°03'1 0.3
2017-Sep-21 04:27N 40°14' E 026°04'4 0.4
2017-Sep-20 19:08N 40°14' E 025°58'212.7
2017-Sep-20 18:59N 40°14' E 026°01'7 3.7
2017-Sep-20 16:57N 40°13' E 026°10'613.4
2017-Sep-20 16:30N 40°13' E 026°02'0 0.2
2017-Sep-20 14:00N 40°14' E 026°02'11 5.2
2017-Sep-20 11:57N 40°12' E 026°16'0 0.0
2017-Sep-20 11:28N 40°12' E 026°16'2 4.3
2017-Sep-20 11:00N 40°13' E 026°14'713.3
2017-Sep-20 10:29N 40°13' E 026°04'3 1.0
2017-Sep-20 07:58N 40°14' E 026°01'612.2
2017-Sep-20 07:29N 40°13' E 026°09'1 0.4
2017-Sep-20 04:46N 40°13' E 026°07'7 0.7
2017-Sep-19 19:10N 40°14' E 025°58'212.3
2017-Sep-19 19:00N 40°14' E 026°01'712.4
2017-Sep-19 18:27N 40°13' E 026°10'5 6.1
2017-Sep-19 17:38N 40°12' E 026°16'0 0.0
2017-Sep-19 17:26N 40°12' E 026°16'2 4.6
2017-Sep-19 17:00N 40°12' E 026°14'713.5
2017-Sep-19 16:29N 40°13' E 026°04'5 2.1
2017-Sep-19 14:12N 40°14' E 025°58'212.6
2017-Sep-19 14:00N 40°13' E 026°02'1111.9
2017-Sep-19 13:05N 40°12' E 026°16'0 0.4
2017-Sep-19 12:39N 40°12' E 026°16'0 0.0
2017-Sep-19 12:17N 40°12' E 026°16'0 0.0
2017-Sep-19 11:46N 40°12' E 026°16'0 0.0
2017-Sep-19 11:30N 40°12' E 026°16'2 4.4
2017-Sep-19 11:00N 40°12' E 026°13'713.3
2017-Sep-19 10:29N 40°13' E 026°04'3 1.2
2017-Sep-19 08:00N 40°14' E 026°01'12 4.5
2017-Sep-19 05:23N 40°12' E 026°16'7 9.2
2017-Sep-19 04:36N 40°13' E 026°07'213.2
2017-Sep-19 04:27N 40°13' E 026°04'4 0.6
2017-Sep-18 20:37N 40°14' E 025°58'212.4
2017-Sep-18 20:28N 40°14' E 026°01'912.7
2017-Sep-18 19:46N 40°13' E 026°12'3 2.8
2017-Sep-18 18:43N 40°12' E 026°09'313.1
2017-Sep-18 18:29N 40°13' E 026°05'5 3.8
2017-Sep-18 17:09N 40°14' E 025°58'212.4
2017-Sep-18 16:58N 40°13' E 026°01'612.1
2017-Sep-18 16:29N 40°13' E 026°09'611.8
2017-Sep-18 16:00N 40°12' E 026°16'0 0.0
2017-Sep-18 15:06N 40°12' E 026°16'0 0.0
2017-Sep-18 14:16N 40°12' E 026°16'611.7
2017-Sep-18 13:43N 40°13' E 026°08'313.1
2017-Sep-18 13:28N 40°13' E 026°03'3 1.3
2017-Sep-18 11:05N 40°13' E 025°59'211.9
2017-Sep-18 10:57N 40°13' E 026°01'612.4
2017-Sep-18 10:29N 40°13' E 026°09'6 3.9
2017-Sep-18 09:05N 40°12' E 026°16'0 0.0
2017-Sep-18 09:00N 40°12' E 026°16'0 0.0
2017-Sep-18 08:12N 40°12' E 026°16'912.4
2017-Sep-18 07:28N 40°13' E 026°04'1 0.3
2017-Sep-18 04:50N 40°13' E 026°03'10 2.1
2017-Sep-18 00:12N 40°12' E 026°16'0 0.0
2017-Sep-17 23:56N 40°12' E 026°16'0 0.0
2017-Sep-17 23:29N 40°12' E 026°16'0 0.0
2017-Sep-17 22:59N 40°12' E 026°16'0 0.0
2017-Sep-17 22:30N 40°12' E 026°16'0 0.0
2017-Sep-17 21:59N 40°12' E 026°16'0 0.0
2017-Sep-17 21:30N 40°12' E 026°16'5 7.0
2017-Sep-17 20:46N 40°12' E 026°09'412.9
2017-Sep-17 20:29N 40°13' E 026°05'5 3.6
2017-Sep-17 19:09N 40°14' E 025°58'212.1
2017-Sep-17 18:57N 40°13' E 026°02'1112.8
2017-Sep-17 18:05N 40°12' E 026°16'0 0.2
2017-Sep-17 17:32N 40°12' E 026°16'1112.3
2017-Sep-17 16:41N 40°13' E 026°02'213.2
2017-Sep-17 16:30N 40°13' E 025°59'1 1.1
2017-Sep-17 15:40N 40°14' E 025°58'212.2
2017-Sep-17 15:29N 40°14' E 026°01'712.3
2017-Sep-17 14:56N 40°13' E 026°10'511.3
2017-Sep-17 14:30N 40°12' E 026°16'0 0.3
2017-Sep-17 14:00N 40°12' E 026°16'612.4
2017-Sep-17 13:30N 40°12' E 026°08'713.3
2017-Sep-17 12:59N 40°14' E 025°59'0 0.2
2017-Sep-17 12:10N 40°13' E 025°59'211.9
2017-Sep-17 12:00N 40°13' E 026°01'712.2
2017-Sep-17 11:28N 40°13' E 026°10'5 5.9
2017-Sep-17 10:38N 40°12' E 026°16'0 0.1
2017-Sep-17 10:30N 40°12' E 026°16'611.9
2017-Sep-17 09:59N 40°12' E 026°08'613.4
2017-Sep-17 09:30N 40°13' E 025°60'1 1.0
2017-Sep-17 08:38N 40°14' E 025°58'212.0
2017-Sep-17 08:29N 40°13' E 026°01'10 5.7
2017-Sep-17 06:47N 40°12' E 026°13'412.8
2017-Sep-17 06:30N 40°13' E 026°09'713.7
2017-Sep-17 05:58N 40°14' E 025°59'0 0.5
2017-Sep-17 05:08N 40°14' E 025°59'212.0
2017-Sep-17 04:59N 40°13' E 026°01'912.7
2017-Sep-17 04:18N 40°12' E 026°12'3 9.9
2017-Sep-17 04:00N 40°12' E 026°16'0 0.0
2017-Sep-17 03:28N 40°12' E 026°16'6 8.3
2017-Sep-17 02:43N 40°13' E 026°08'313.1
2017-Sep-17 02:30N 40°13' E 026°04'4 0.8
2017-Sep-16 21:08N 40°14' E 025°58'212.1
2017-Sep-16 21:00N 40°14' E 026°00'9 4.1
2017-Sep-16 18:53N 40°12' E 026°11'512.9
2017-Sep-16 18:30N 40°13' E 026°05'3 2.4
2017-Sep-16 17:14N 40°13' E 026°01'311.8
2017-Sep-16 16:58N 40°13' E 026°05'612.6
2017-Sep-16 16:29N 40°12' E 026°13'2 3.4
2017-Sep-16 15:49N 40°12' E 026°16'3 7.6
2017-Sep-16 15:28N 40°12' E 026°13'613.1
2017-Sep-16 15:00N 40°13' E 026°05'5 4.6
2017-Sep-16 13:56N 40°14' E 025°58'512.2
2017-Sep-16 13:30N 40°13' E 026°05'6 3.8
2017-Sep-16 11:59N 40°12' E 026°13'612.7
2017-Sep-16 11:30N 40°13' E 026°04'5 4.4
2017-Sep-16 10:25N 40°14' E 025°58'712.2
2017-Sep-16 09:50N 40°14' E 026°08'4 3.5
2017-Sep-16 08:34N 40°12' E 026°13'512.4
2017-Sep-16 08:09N 40°13' E 026°07'212.8
2017-Sep-16 08:00N 40°13' E 026°04'5 5.0
2017-Sep-16 07:02N 40°14' E 025°58'012.6
2017-Sep-16 07:00N 40°14' E 025°58'8 3.3
2017-Sep-16 04:42N 40°12' E 026°08'312.9
2017-Sep-16 04:29N 40°13' E 026°05'2 1.4
2017-Sep-16 02:57N 40°13' E 026°02'11 2.1
2017-Sep-15 21:41N 40°12' E 026°16'0 0.0
2017-Sep-15 21:30N 40°12' E 026°16'6 8.1
2017-Sep-15 20:41N 40°12' E 026°08'313.0
2017-Sep-15 20:29N 40°13' E 026°04'5 3.5
2017-Sep-15 19:10N 40°14' E 025°58'211.8
2017-Sep-15 19:00N 40°14' E 026°01'8 3.8
2017-Sep-15 16:53N 40°12' E 026°11'513.3
2017-Sep-15 16:29N 40°13' E 026°04'5 4.1
2017-Sep-15 15:20N 40°14' E 025°58'13 6.2
2017-Sep-15 13:10N 40°12' E 026°16'612.5
2017-Sep-15 12:41N 40°13' E 026°08'213.6
2017-Sep-15 12:30N 40°13' E 026°05'2 1.6
2017-Sep-15 10:59N 40°14' E 026°02'4 1.9
2017-Sep-15 08:41N 40°13' E 026°07'313.4
2017-Sep-15 08:29N 40°13' E 026°04'3 1.9
2017-Sep-15 07:04N 40°14' E 026°00'111.8
2017-Sep-15 07:00N 40°14' E 026°02'4 2.1
2017-Sep-15 04:49N 40°13' E 026°07'4 2.0
2017-Sep-15 02:53N 40°13' E 026°02'4 0.5
2017-Sep-14 18:39N 40°13' E 026°07'312.9
2017-Sep-14 18:25N 40°13' E 026°03'1 0.7
2017-Sep-14 16:56N 40°13' E 026°02'1112.7
2017-Sep-14 16:05N 40°12' E 026°16'0 1.6
2017-Sep-14 15:57N 40°12' E 026°16'0 0.0
2017-Sep-14 15:29N 40°12' E 026°16'3 5.4
2017-Sep-14 15:00N 40°12' E 026°13'712.9
2017-Sep-14 14:26N 40°13' E 026°03'3 1.9
2017-Sep-14 13:02N 40°14' E 026°00'6 2.8
2017-Sep-14 10:44N 40°13' E 026°08'412.6
2017-Sep-14 10:27N 40°13' E 026°03'3 1.8
2017-Sep-14 09:02N 40°14' E 026°00'012.3
2017-Sep-14 09:00N 40°14' E 026°01'4 1.8
2017-Sep-14 06:37N 40°13' E 026°06'212.8
2017-Sep-14 06:28N 40°13' E 026°04'1 0.9
2017-Sep-14 05:01N 40°13' E 026°02'011.9
2017-Sep-14 04:59N 40°13' E 026°03'10 1.3
2017-Sep-13 20:52N 40°12' E 026°16'4 2.0
2017-Sep-13 18:50N 40°13' E 026°11'413.2
2017-Sep-13 18:30N 40°13' E 026°05'3 2.3
2017-Sep-13 17:01N 40°14' E 026°01'011.8
2017-Sep-13 17:00N 40°14' E 026°01'5 2.4
2017-Sep-13 14:42N 40°13' E 026°08'313.2
2017-Sep-13 14:27N 40°13' E 026°04'2 1.3
2017-Sep-13 12:59N 40°13' E 026°01'612.3
2017-Sep-13 12:29N 40°13' E 026°09'2 1.0
2017-Sep-13 10:38N 40°13' E 026°07'213.3
2017-Sep-13 10:27N 40°13' E 026°04'4 3.4
2017-Sep-13 09:11N 40°14' E 025°58'312.2
2017-Sep-13 08:57N 40°13' E 026°02'612.5
2017-Sep-13 08:27N 40°13' E 026°10'5 9.0
2017-Sep-13 07:56N 40°12' E 026°16'0 0.0
2017-Sep-13 07:29N 40°12' E 026°16'6 8.1
2017-Sep-13 06:43N 40°13' E 026°08'413.2
2017-Sep-13 06:26N 40°13' E 026°03'1 0.8
2017-Sep-13 05:01N 40°13' E 026°02'011.0
2017-Sep-13 05:00N 40°13' E 026°02'6 0.6
2017-Sep-12 18:54N 40°13' E 026°10'6 3.3
2017-Sep-12 17:00N 40°13' E 026°02'6 2.6
2017-Sep-12 14:50N 40°12' E 026°09'1 0.8
2017-Sep-12 12:53N 40°11' E 026°07'3 1.9
2017-Sep-12 11:04N 40°11' E 026°11'113.5
2017-Sep-12 11:00N 40°10' E 026°10'3 1.4
2017-Sep-12 08:49N 40°11' E 026°06'5 2.8
2017-Sep-12 07:06N 40°11' E 026°12'6 3.0
2017-Sep-12 05:04N 40°12' E 026°05'111.4
2017-Sep-12 05:00N 40°12' E 026°05'6 0.6
2017-Sep-11 19:00N 40°12' E 026°13'713.2
2017-Sep-11 18:29N 40°13' E 026°04'5 3.5
2017-Sep-11 17:10N 40°14' E 025°58'212.4
2017-Sep-11 16:59N 40°13' E 026°01'611.8
2017-Sep-11 16:29N 40°13' E 026°09'4 2.4
2017-Sep-11 15:01N 40°12' E 026°14'713.2
2017-Sep-11 14:30N 40°13' E 026°05'5 4.0
2017-Sep-11 13:13N 40°14' E 025°58'311.8
2017-Sep-11 13:00N 40°14' E 026°02'11 6.1
2017-Sep-11 11:12N 40°12' E 026°16'311.6
2017-Sep-11 10:59N 40°12' E 026°13'713.1
2017-Sep-11 10:28N 40°13' E 026°04'4 2.6
2017-Sep-11 09:08N 40°14' E 025°60'212.3
2017-Sep-11 09:00N 40°14' E 026°02'  

Dump ship's entire track history